sensor_id;sensor_type;location;lat;lon;timestamp;pressure;altitude;pressure_sealevel;temperature;humidity
30875;BME280;17581;43.222;27.924;2023-01-28T00:02:16;99925.75;;;6.88;73.67
30875;BME280;17581;43.222;27.924;2023-01-28T00:04:43;99933.25;;;6.83;74.27
30875;BME280;17581;43.222;27.924;2023-01-28T00:07:08;99925.47;;;6.80;73.80
30875;BME280;17581;43.222;27.924;2023-01-28T00:09:34;99924.25;;;6.84;74.08
30875;BME280;17581;43.222;27.924;2023-01-28T00:11:59;99932.53;;;6.92;73.40
30875;BME280;17581;43.222;27.924;2023-01-28T00:14:25;99927.03;;;6.82;72.97
30875;BME280;17581;43.222;27.924;2023-01-28T00:16:50;99930.72;;;6.81;73.45
30875;BME280;17581;43.222;27.924;2023-01-28T00:19:16;99941.25;;;6.72;72.98
30875;BME280;17581;43.222;27.924;2023-01-28T00:21:41;99944.16;;;6.80;73.31
30875;BME280;17581;43.222;27.924;2023-01-28T00:24:07;99935.28;;;6.68;73.36
30875;BME280;17581;43.222;27.924;2023-01-28T00:26:34;99943.91;;;6.72;74.05
30875;BME280;17581;43.222;27.924;2023-01-28T00:29:00;99948.50;;;6.70;74.25
30875;BME280;17581;43.222;27.924;2023-01-28T00:31:26;99953.41;;;6.76;74.43
30875;BME280;17581;43.222;27.924;2023-01-28T00:33:52;99948.00;;;6.65;73.86
30875;BME280;17581;43.222;27.924;2023-01-28T00:36:20;99945.34;;;6.65;74.40
30875;BME280;17581;43.222;27.924;2023-01-28T00:38:50;99950.84;;;6.74;74.17
30875;BME280;17581;43.222;27.924;2023-01-28T00:41:17;99943.16;;;6.70;74.53
30875;BME280;17581;43.222;27.924;2023-01-28T00:43:43;99927.38;;;6.67;74.61
30875;BME280;17581;43.222;27.924;2023-01-28T00:46:10;99943.91;;;6.72;74.95
30875;BME280;17581;43.222;27.924;2023-01-28T00:48:37;99940.94;;;6.52;75.21
30875;BME280;17581;43.222;27.924;2023-01-28T00:51:03;99941.41;;;6.46;75.37
30875;BME280;17581;43.222;27.924;2023-01-28T00:53:29;99942.25;;;6.47;75.51
30875;BME280;17581;43.222;27.924;2023-01-28T00:55:54;99947.38;;;6.50;76.06
30875;BME280;17581;43.222;27.924;2023-01-28T00:58:20;99946.75;;;6.46;75.92
30875;BME280;17581;43.222;27.924;2023-01-28T01:00:48;99959.88;;;6.61;76.15
30875;BME280;17581;43.222;27.924;2023-01-28T01:03:15;99967.66;;;6.64;76.25
30875;BME280;17581;43.222;27.924;2023-01-28T01:05:41;99959.00;;;6.73;75.85
30875;BME280;17581;43.222;27.924;2023-01-28T01:08:07;99962.38;;;6.75;75.46
30875;BME280;17581;43.222;27.924;2023-01-28T01:10:32;99953.81;;;6.58;75.30
30875;BME280;17581;43.222;27.924;2023-01-28T01:12:59;99969.53;;;6.63;75.43
30875;BME280;17581;43.222;27.924;2023-01-28T01:15:24;99967.22;;;6.70;75.70
30875;BME280;17581;43.222;27.924;2023-01-28T01:17:50;99970.00;;;6.68;75.54
30875;BME280;17581;43.222;27.924;2023-01-28T01:20:24;99963.31;;;6.63;75.77
30875;BME280;17581;43.222;27.924;2023-01-28T01:22:50;99973.22;;;6.49;75.44
30875;BME280;17581;43.222;27.924;2023-01-28T01:25:16;99976.59;;;6.51;75.46
30875;BME280;17581;43.222;27.924;2023-01-28T01:27:42;99978.09;;;6.55;75.79
30875;BME280;17581;43.222;27.924;2023-01-28T01:30:11;99969.34;;;6.53;76.00
30875;BME280;17581;43.222;27.924;2023-01-28T01:32:37;99989.47;;;6.46;75.49
30875;BME280;17581;43.222;27.924;2023-01-28T01:35:04;99989.00;;;6.52;75.36
30875;BME280;17581;43.222;27.924;2023-01-28T01:37:36;99983.91;;;6.49;75.53
30875;BME280;17581;43.222;27.924;2023-01-28T01:40:02;99999.69;;;6.52;75.86
30875;BME280;17581;43.222;27.924;2023-01-28T01:42:30;100001.63;;;6.50;75.68
30875;BME280;17581;43.222;27.924;2023-01-28T01:47:27;100010.38;;;6.52;75.16
30875;BME280;17581;43.222;27.924;2023-01-28T01:49:53;100003.31;;;6.51;74.36
30875;BME280;17581;43.222;27.924;2023-01-28T01:52:24;99999.34;;;6.33;74.14
30875;BME280;17581;43.222;27.924;2023-01-28T01:54:54;99993.19;;;6.33;74.46
30875;BME280;17581;43.222;27.924;2023-01-28T01:57:26;100009.59;;;6.39;74.24
30875;BME280;17581;43.222;27.924;2023-01-28T01:59:53;100012.38;;;6.38;74.53
30875;BME280;17581;43.222;27.924;2023-01-28T02:02:19;100011.53;;;6.37;74.50
30875;BME280;17581;43.222;27.924;2023-01-28T02:04:45;100023.69;;;6.41;74.68
30875;BME280;17581;43.222;27.924;2023-01-28T02:07:13;100022.25;;;6.25;73.94
30875;BME280;17581;43.222;27.924;2023-01-28T02:09:39;100029.25;;;6.38;74.01
30875;BME280;17581;43.222;27.924;2023-01-28T02:14:44;100027.41;;;6.15;73.07
30875;BME280;17581;43.222;27.924;2023-01-28T02:17:11;100038.09;;;6.15;73.42
30875;BME280;17581;43.222;27.924;2023-01-28T02:19:40;100039.06;;;6.14;72.79
30875;BME280;17581;43.222;27.924;2023-01-28T02:22:21;100051.25;;;6.06;73.20
30875;BME280;17581;43.222;27.924;2023-01-28T02:25:10;100051.16;;;5.94;73.35
30875;BME280;17581;43.222;27.924;2023-01-28T02:30:24;100049.56;;;5.92;73.42
30875;BME280;17581;43.222;27.924;2023-01-28T02:33:00;100051.69;;;5.99;73.24
30875;BME280;17581;43.222;27.924;2023-01-28T02:35:51;100059.28;;;5.93;72.54
30875;BME280;17581;43.222;27.924;2023-01-28T02:40:50;100065.56;;;5.79;72.48
30875;BME280;17581;43.222;27.924;2023-01-28T02:43:43;100069.41;;;5.63;72.03
30875;BME280;17581;43.222;27.924;2023-01-28T02:48:57;100082.84;;;5.48;72.67
30875;BME280;17581;43.222;27.924;2023-01-28T02:57:18;100082.09;;;5.21;73.29
30875;BME280;17581;43.222;27.924;2023-01-28T02:59:51;100088.38;;;5.20;73.37
30875;BME280;17581;43.222;27.924;2023-01-28T03:02:43;100087.16;;;4.99;73.76
30875;BME280;17581;43.222;27.924;2023-01-28T03:05:19;100089.81;;;4.99;73.69
30875;BME280;17581;43.222;27.924;2023-01-28T03:07:47;100094.59;;;4.94;73.60
30875;BME280;17581;43.222;27.924;2023-01-28T03:10:16;100093.09;;;4.90;73.93
30875;BME280;17581;43.222;27.924;2023-01-28T03:12:43;100099.41;;;4.89;74.07
30875;BME280;17581;43.222;27.924;2023-01-28T03:15:49;100098.53;;;4.88;73.99
30875;BME280;17581;43.222;27.924;2023-01-28T03:18:46;100087.31;;;4.83;73.52
30875;BME280;17581;43.222;27.924;2023-01-28T03:21:37;100095.22;;;4.85;73.54
30875;BME280;17581;43.222;27.924;2023-01-28T03:24:32;100094.13;;;4.75;73.09
30875;BME280;17581;43.222;27.924;2023-01-28T03:30:18;100094.56;;;4.55;72.99
30875;BME280;17581;43.222;27.924;2023-01-28T03:33:04;100102.66;;;4.53;73.19
30875;BME280;17581;43.222;27.924;2023-01-28T03:35:49;100082.91;;;4.43;73.63
30875;BME280;17581;43.222;27.924;2023-01-28T03:38:34;100106.56;;;4.48;73.05
30875;BME280;17581;43.222;27.924;2023-01-28T03:41:08;100115.09;;;4.53;72.67
30875;BME280;17581;43.222;27.924;2023-01-28T03:43:34;100111.34;;;4.43;72.89
30875;BME280;17581;43.222;27.924;2023-01-28T03:46:00;100113.81;;;4.46;72.48
30875;BME280;17581;43.222;27.924;2023-01-28T03:48:26;100104.34;;;4.27;72.54
30875;BME280;17581;43.222;27.924;2023-01-28T03:50:54;100118.78;;;4.23;72.83
30875;BME280;17581;43.222;27.924;2023-01-28T03:53:21;100115.84;;;4.28;73.25
30875;BME280;17581;43.222;27.924;2023-01-28T03:55:49;100110.13;;;4.34;73.33
30875;BME280;17581;43.222;27.924;2023-01-28T03:58:15;100113.06;;;4.29;73.46
30875;BME280;17581;43.222;27.924;2023-01-28T04:00:41;100111.75;;;4.22;73.52
30875;BME280;17581;43.222;27.924;2023-01-28T04:06:00;100117.66;;;4.13;72.77
30875;BME280;17581;43.222;27.924;2023-01-28T04:08:26;100128.97;;;4.17;73.50
30875;BME280;17581;43.222;27.924;2023-01-28T04:10:52;100139.88;;;4.26;73.14
30875;BME280;17581;43.222;27.924;2023-01-28T04:13:18;100138.84;;;4.15;72.63
30875;BME280;17581;43.222;27.924;2023-01-28T04:15:43;100118.63;;;3.98;72.95
30875;BME280;17581;43.222;27.924;2023-01-28T04:18:09;100140.09;;;4.09;73.50
30875;BME280;17581;43.222;27.924;2023-01-28T04:20:35;100134.47;;;4.14;73.28
30875;BME280;17581;43.222;27.924;2023-01-28T04:23:01;100131.06;;;4.12;72.77
30875;BME280;17581;43.222;27.924;2023-01-28T04:25:27;100140.50;;;4.03;72.88
30875;BME280;17581;43.222;27.924;2023-01-28T04:27:52;100135.91;;;4.05;73.57
30875;BME280;17581;43.222;27.924;2023-01-28T04:30:18;100125.53;;;4.01;72.89
30875;BME280;17581;43.222;27.924;2023-01-28T04:32:45;100134.38;;;4.01;72.80
30875;BME280;17581;43.222;27.924;2023-01-28T04:35:11;100140.00;;;4.11;72.44
30875;BME280;17581;43.222;27.924;2023-01-28T04:37:37;100145.31;;;4.11;72.37
30875;BME280;17581;43.222;27.924;2023-01-28T04:40:02;100151.56;;;4.10;71.70
30875;BME280;17581;43.222;27.924;2023-01-28T04:42:28;100144.66;;;4.07;71.15
30875;BME280;17581;43.222;27.924;2023-01-28T04:44:53;100136.69;;;3.93;71.33
30875;BME280;17581;43.222;27.924;2023-01-28T04:47:19;100142.19;;;3.90;71.49
30875;BME280;17581;43.222;27.924;2023-01-28T04:49:44;100154.06;;;3.84;71.90
30875;BME280;17581;43.222;27.924;2023-01-28T04:52:10;100144.84;;;3.76;72.16
30875;BME280;17581;43.222;27.924;2023-01-28T04:54:35;100147.50;;;3.76;71.95
30875;BME280;17581;43.222;27.924;2023-01-28T04:57:00;100141.34;;;3.75;72.06
30875;BME280;17581;43.222;27.924;2023-01-28T04:59:26;100134.78;;;3.67;72.02
30875;BME280;17581;43.222;27.924;2023-01-28T05:01:51;100134.97;;;3.64;72.15
30875;BME280;17581;43.222;27.924;2023-01-28T05:04:17;100147.84;;;3.56;72.80
30875;BME280;17581;43.222;27.924;2023-01-28T05:06:42;100126.56;;;3.56;73.08
30875;BME280;17581;43.222;27.924;2023-01-28T05:09:08;100127.50;;;3.55;72.58
30875;BME280;17581;43.222;27.924;2023-01-28T05:11:33;100157.91;;;3.51;72.84
30875;BME280;17581;43.222;27.924;2023-01-28T05:13:59;100160.94;;;3.45;72.78
30875;BME280;17581;43.222;27.924;2023-01-28T05:16:24;100180.31;;;3.47;73.40
30875;BME280;17581;43.222;27.924;2023-01-28T05:18:50;100165.47;;;3.43;73.22
30875;BME280;17581;43.222;27.924;2023-01-28T05:21:16;100179.81;;;3.40;73.90
30875;BME280;17581;43.222;27.924;2023-01-28T05:23:41;100186.47;;;3.47;73.92
30875;BME280;17581;43.222;27.924;2023-01-28T05:26:07;100187.88;;;3.39;73.71
30875;BME280;17581;43.222;27.924;2023-01-28T05:28:33;100185.66;;;3.31;73.84
30875;BME280;17581;43.222;27.924;2023-01-28T05:31:05;100206.06;;;3.30;73.75
30875;BME280;17581;43.222;27.924;2023-01-28T05:33:31;100179.84;;;3.24;74.09
30875;BME280;17581;43.222;27.924;2023-01-28T05:35:57;100199.97;;;3.28;74.07
30875;BME280;17581;43.222;27.924;2023-01-28T05:38:23;100192.59;;;3.34;74.36
30875;BME280;17581;43.222;27.924;2023-01-28T05:40:48;100189.75;;;3.37;73.89
30875;BME280;17581;43.222;27.924;2023-01-28T05:43:14;100210.28;;;3.49;73.83
30875;BME280;17581;43.222;27.924;2023-01-28T05:45:40;100213.91;;;3.48;72.83
30875;BME280;17581;43.222;27.924;2023-01-28T05:48:06;100206.50;;;3.39;73.32
30875;BME280;17581;43.222;27.924;2023-01-28T05:50:31;100211.50;;;3.43;73.30
30875;BME280;17581;43.222;27.924;2023-01-28T05:52:57;100232.38;;;3.35;73.48
30875;BME280;17581;43.222;27.924;2023-01-28T05:55:22;100225.78;;;3.42;73.66
30875;BME280;17581;43.222;27.924;2023-01-28T05:57:48;100218.59;;;3.28;74.20
30875;BME280;17581;43.222;27.924;2023-01-28T06:00:14;100227.81;;;3.37;73.59
30875;BME280;17581;43.222;27.924;2023-01-28T06:02:41;100234.00;;;3.38;73.55
30875;BME280;17581;43.222;27.924;2023-01-28T06:05:07;100228.88;;;3.35;73.91
30875;BME280;17581;43.222;27.924;2023-01-28T06:07:33;100238.38;;;3.39;73.54
30875;BME280;17581;43.222;27.924;2023-01-28T06:09:58;100244.28;;;3.44;73.56
30875;BME280;17581;43.222;27.924;2023-01-28T06:12:24;100233.41;;;3.33;73.06
30875;BME280;17581;43.222;27.924;2023-01-28T06:14:49;100248.75;;;3.27;72.94
30875;BME280;17581;43.222;27.924;2023-01-28T06:17:15;100264.34;;;3.34;72.67
30875;BME280;17581;43.222;27.924;2023-01-28T06:19:40;100257.69;;;3.26;72.70
30875;BME280;17581;43.222;27.924;2023-01-28T06:22:05;100259.38;;;3.27;72.64
30875;BME280;17581;43.222;27.924;2023-01-28T06:24:31;100241.06;;;3.07;72.36
30875;BME280;17581;43.222;27.924;2023-01-28T06:26:57;100245.88;;;3.16;73.25
30875;BME280;17581;43.222;27.924;2023-01-28T06:29:23;100261.97;;;3.13;73.78
30875;BME280;17581;43.222;27.924;2023-01-28T06:31:55;100232.25;;;2.91;73.44
30875;BME280;17581;43.222;27.924;2023-01-28T06:34:38;100261.22;;;3.11;73.74
30875;BME280;17581;43.222;27.924;2023-01-28T06:37:04;100277.06;;;3.13;73.81
30875;BME280;17581;43.222;27.924;2023-01-28T06:39:30;100251.13;;;3.02;74.45
30875;BME280;17581;43.222;27.924;2023-01-28T06:41:59;100281.28;;;3.17;73.96
30875;BME280;17581;43.222;27.924;2023-01-28T06:44:24;100274.91;;;3.19;73.78
30875;BME280;17581;43.222;27.924;2023-01-28T06:46:50;100252.91;;;3.02;73.81
30875;BME280;17581;43.222;27.924;2023-01-28T06:49:15;100272.94;;;3.23;73.71
30875;BME280;17581;43.222;27.924;2023-01-28T06:51:41;100290.91;;;3.34;73.76
30875;BME280;17581;43.222;27.924;2023-01-28T06:54:07;100259.38;;;3.27;73.71
30875;BME280;17581;43.222;27.924;2023-01-28T06:56:32;100270.34;;;3.37;73.68
30875;BME280;17581;43.222;27.924;2023-01-28T06:58:58;100262.97;;;3.42;72.91
30875;BME280;17581;43.222;27.924;2023-01-28T07:01:23;100262.88;;;3.44;73.30
30875;BME280;17581;43.222;27.924;2023-01-28T07:03:49;100270.50;;;3.50;72.78
30875;BME280;17581;43.222;27.924;2023-01-28T07:06:14;100283.44;;;3.56;72.74
30875;BME280;17581;43.222;27.924;2023-01-28T07:08:40;100272.03;;;3.54;72.75
30875;BME280;17581;43.222;27.924;2023-01-28T07:11:06;100272.41;;;3.48;72.53
30875;BME280;17581;43.222;27.924;2023-01-28T07:13:31;100279.72;;;3.58;72.76
30875;BME280;17581;43.222;27.924;2023-01-28T07:15:57;100290.13;;;3.63;72.69
30875;BME280;17581;43.222;27.924;2023-01-28T07:18:23;100292.63;;;3.50;71.88
30875;BME280;17581;43.222;27.924;2023-01-28T07:20:48;100300.84;;;3.46;71.38
30875;BME280;17581;43.222;27.924;2023-01-28T07:23:14;100301.19;;;3.55;71.33
30875;BME280;17581;43.222;27.924;2023-01-28T07:25:39;100291.38;;;3.42;71.43
30875;BME280;17581;43.222;27.924;2023-01-28T07:28:05;100308.56;;;3.66;71.04
30875;BME280;17581;43.222;27.924;2023-01-28T07:30:30;100311.78;;;3.71;71.20
30875;BME280;17581;43.222;27.924;2023-01-28T07:32:57;100303.91;;;3.69;71.04
30875;BME280;17581;43.222;27.924;2023-01-28T07:35:23;100313.16;;;3.78;71.14
30875;BME280;17581;43.222;27.924;2023-01-28T07:40:17;100318.16;;;3.98;71.13
30875;BME280;17581;43.222;27.924;2023-01-28T07:42:43;100315.31;;;4.01;70.39
30875;BME280;17581;43.222;27.924;2023-01-28T07:45:08;100313.81;;;4.11;69.75
30875;BME280;17581;43.222;27.924;2023-01-28T07:47:34;100321.44;;;4.17;70.00
30875;BME280;17581;43.222;27.924;2023-01-28T07:49:59;100323.16;;;4.32;69.68
30875;BME280;17581;43.222;27.924;2023-01-28T07:52:25;100323.34;;;4.44;69.67
30875;BME280;17581;43.222;27.924;2023-01-28T07:54:50;100309.66;;;4.35;68.74
30875;BME280;17581;43.222;27.924;2023-01-28T07:57:16;100322.22;;;4.48;69.16
30875;BME280;17581;43.222;27.924;2023-01-28T07:59:50;100330.03;;;4.65;68.91
30875;BME280;17581;43.222;27.924;2023-01-28T08:02:16;100341.47;;;4.67;68.51
30875;BME280;17581;43.222;27.924;2023-01-28T08:04:42;100331.97;;;4.77;68.06
30875;BME280;17581;43.222;27.924;2023-01-28T08:07:08;100336.13;;;4.81;67.63
30875;BME280;17581;43.222;27.924;2023-01-28T08:09:33;100339.78;;;4.80;67.63
30875;BME280;17581;43.222;27.924;2023-01-28T08:12:02;100345.47;;;4.88;67.17
30875;BME280;17581;43.222;27.924;2023-01-28T08:14:28;100351.84;;;4.85;66.60
30875;BME280;17581;43.222;27.924;2023-01-28T08:16:53;100349.28;;;4.98;67.09
30875;BME280;17581;43.222;27.924;2023-01-28T08:19:19;100368.84;;;5.11;66.69
30875;BME280;17581;43.222;27.924;2023-01-28T08:21:48;100358.00;;;5.14;65.88
30875;BME280;17581;43.222;27.924;2023-01-28T08:24:14;100376.28;;;5.06;65.51
30875;BME280;17581;43.222;27.924;2023-01-28T08:26:39;100384.94;;;4.95;65.30
30875;BME280;17581;43.222;27.924;2023-01-28T08:29:05;100391.50;;;4.90;65.47
30875;BME280;17581;43.222;27.924;2023-01-28T08:31:30;100388.00;;;4.75;64.99
30875;BME280;17581;43.222;27.924;2023-01-28T08:33:56;100382.16;;;4.69;64.82
30875;BME280;17581;43.222;27.924;2023-01-28T08:36:22;100392.72;;;4.56;65.74
30875;BME280;17581;43.222;27.924;2023-01-28T08:38:51;100398.16;;;4.69;65.78
30875;BME280;17581;43.222;27.924;2023-01-28T08:41:21;100410.34;;;4.73;65.89
30875;BME280;17581;43.222;27.924;2023-01-28T08:43:47;100400.44;;;4.61;66.20
30875;BME280;17581;43.222;27.924;2023-01-28T08:46:12;100400.44;;;4.61;65.85
30875;BME280;17581;43.222;27.924;2023-01-28T08:48:38;100397.72;;;4.47;66.06
30875;BME280;17581;43.222;27.924;2023-01-28T08:51:03;100394.13;;;4.62;66.11
30875;BME280;17581;43.222;27.924;2023-01-28T08:53:29;100392.25;;;4.78;65.83
30875;BME280;17581;43.222;27.924;2023-01-28T08:55:55;100382.47;;;4.78;65.38
30875;BME280;17581;43.222;27.924;2023-01-28T08:58:20;100391.66;;;4.59;65.35
30875;BME280;17581;43.222;27.924;2023-01-28T09:00:46;100390.72;;;4.60;65.70
30875;BME280;17581;43.222;27.924;2023-01-28T09:03:12;100401.41;;;4.74;65.31
30875;BME280;17581;43.222;27.924;2023-01-28T09:05:38;100392.44;;;4.75;65.09
30875;BME280;17581;43.222;27.924;2023-01-28T09:08:06;100382.38;;;4.80;64.52
30875;BME280;17581;43.222;27.924;2023-01-28T09:10:32;100392.03;;;4.53;65.17
30875;BME280;17581;43.222;27.924;2023-01-28T09:12:58;100374.56;;;4.49;65.33
30875;BME280;17581;43.222;27.924;2023-01-28T09:15:24;100389.22;;;4.70;65.92
30875;BME280;17581;43.222;27.924;2023-01-28T09:17:56;100384.50;;;4.89;65.60
30875;BME280;17581;43.222;27.924;2023-01-28T09:20:21;100386.19;;;4.90;64.80
30875;BME280;17581;43.222;27.924;2023-01-28T09:22:47;100390.75;;;4.88;64.26
30875;BME280;17581;43.222;27.924;2023-01-28T09:25:12;100393.63;;;4.71;63.90
30875;BME280;17581;43.222;27.924;2023-01-28T09:27:38;100387.31;;;4.58;65.07
30875;BME280;17581;43.222;27.924;2023-01-28T09:30:04;100408.06;;;4.81;64.20
30875;BME280;17581;43.222;27.924;2023-01-28T09:32:31;100417.09;;;4.78;64.32
30875;BME280;17581;43.222;27.924;2023-01-28T09:34:56;100416.16;;;4.79;63.87
30875;BME280;17581;43.222;27.924;2023-01-28T09:37:22;100422.06;;;4.84;64.32
30875;BME280;17581;43.222;27.924;2023-01-28T09:39:47;100423.84;;;4.84;62.66
30875;BME280;17581;43.222;27.924;2023-01-28T09:45:38;100432.16;;;4.50;63.74
30875;BME280;17581;43.222;27.924;2023-01-28T09:48:11;100427.00;;;4.47;64.45
30875;BME280;17581;43.222;27.924;2023-01-28T09:50:40;100421.81;;;4.45;64.57
30875;BME280;17581;43.222;27.924;2023-01-28T09:53:21;100421.69;;;4.47;64.59
30875;BME280;17581;43.222;27.924;2023-01-28T09:55:53;100417.72;;;4.54;64.89
30875;BME280;17581;43.222;27.924;2023-01-28T09:58:20;100411.28;;;4.58;64.22
30875;BME280;17581;43.222;27.924;2023-01-28T10:07:04;100391.84;;;4.56;64.93
30875;BME280;17581;43.222;27.924;2023-01-28T10:09:42;100382.16;;;4.69;64.58
30875;BME280;17581;43.222;27.924;2023-01-28T10:14:54;100366.66;;;4.75;64.10
30875;BME280;17581;43.222;27.924;2023-01-28T10:17:28;100356.41;;;4.69;63.98
30875;BME280;17581;43.222;27.924;2023-01-28T10:20:02;100366.00;;;4.72;63.62
30875;BME280;17581;43.222;27.924;2023-01-28T10:22:34;100368.47;;;4.75;63.80
30875;BME280;17581;43.222;27.924;2023-01-28T10:25:05;100365.63;;;4.78;63.76
30875;BME280;17581;43.222;27.924;2023-01-28T10:27:33;100366.97;;;4.85;63.99
30875;BME280;17581;43.222;27.924;2023-01-28T10:30:15;100369.91;;;4.80;63.71
30875;BME280;17581;43.222;27.924;2023-01-28T10:32:55;100360.28;;;4.78;63.46
30875;BME280;17581;43.222;27.924;2023-01-28T10:35:24;100359.06;;;4.83;63.41
30875;BME280;17581;43.222;27.924;2023-01-28T10:37:58;100343.34;;;4.65;63.47
30875;BME280;17581;43.222;27.924;2023-01-28T10:40:25;100357.44;;;4.81;63.30
30875;BME280;17581;43.222;27.924;2023-01-28T10:42:51;100370.72;;;4.53;63.93
30875;BME280;17581;43.222;27.924;2023-01-28T10:47:59;100397.47;;;4.51;64.14
30875;BME280;17581;43.222;27.924;2023-01-28T10:50:28;100402.31;;;4.45;64.38
30875;BME280;17581;43.222;27.924;2023-01-28T10:52:58;100388.91;;;4.46;64.24
30875;BME280;17581;43.222;27.924;2023-01-28T10:55:29;100404.03;;;4.60;64.70
30875;BME280;17581;43.222;27.924;2023-01-28T10:57:56;100405.22;;;4.70;64.29
30875;BME280;17581;43.222;27.924;2023-01-28T11:00:25;100403.47;;;4.69;64.04
30875;BME280;17581;43.222;27.924;2023-01-28T11:02:52;100398.94;;;4.71;63.90
30875;BME280;17581;43.222;27.924;2023-01-28T11:05:19;100408.44;;;4.75;63.61
30875;BME280;17581;43.222;27.924;2023-01-28T11:07:46;100401.59;;;4.85;63.63
30875;BME280;17581;43.222;27.924;2023-01-28T11:10:31;100406.63;;;4.89;63.50
30875;BME280;17581;43.222;27.924;2023-01-28T11:12:59;100415.59;;;4.88;63.40
30875;BME280;17581;43.222;27.924;2023-01-28T11:15:25;100418.34;;;4.87;63.13
30875;BME280;17581;43.222;27.924;2023-01-28T11:18:02;100415.13;;;4.82;62.97
30875;BME280;17581;43.222;27.924;2023-01-28T11:20:36;100424.53;;;4.87;63.61
30875;BME280;17581;43.222;27.924;2023-01-28T11:23:02;100423.66;;;4.87;63.57
30875;BME280;17581;43.222;27.924;2023-01-28T11:25:36;100419.13;;;4.89;63.67
30875;BME280;17581;43.222;27.924;2023-01-28T11:28:07;100424.25;;;4.92;63.33
30875;BME280;17581;43.222;27.924;2023-01-28T11:30:40;100418.75;;;4.95;63.05
30875;BME280;17581;43.222;27.924;2023-01-28T11:35:37;100422.72;;;4.74;62.25
30875;BME280;17581;43.222;27.924;2023-01-28T11:38:17;100415.25;;;4.51;63.06
30875;BME280;17581;43.222;27.924;2023-01-28T11:40:53;100418.19;;;4.46;63.83
30875;BME280;17581;43.222;27.924;2023-01-28T11:43:27;100420.56;;;4.51;64.19
30875;BME280;17581;43.222;27.924;2023-01-28T11:51:21;100432.09;;;4.21;64.61
30875;BME280;17581;43.222;27.924;2023-01-28T12:00:27;100420.47;;;3.93;66.53
30875;BME280;17581;43.222;27.924;2023-01-28T12:03:15;100429.97;;;4.12;66.30
30875;BME280;17581;43.222;27.924;2023-01-28T12:05:48;100434.81;;;4.20;66.34
30875;BME280;17581;43.222;27.924;2023-01-28T12:08:28;100440.59;;;4.28;65.65
30875;BME280;17581;43.222;27.924;2023-01-28T12:24:36;100464.38;;;4.15;65.19
30875;BME280;17581;43.222;27.924;2023-01-28T12:27:20;100472.56;;;4.12;65.55
30875;BME280;17581;43.222;27.924;2023-01-28T12:30:05;100462.09;;;4.09;65.64
30875;BME280;17581;43.222;27.924;2023-01-28T12:33:02;100466.44;;;4.10;66.11
30875;BME280;17581;43.222;27.924;2023-01-28T12:38:33;100462.00;;;3.95;66.61
30875;BME280;17581;43.222;27.924;2023-01-28T12:41:08;100487.31;;;4.02;66.74
30875;BME280;17581;43.222;27.924;2023-01-28T12:43:49;100465.50;;;3.96;66.55
30875;BME280;17581;43.222;27.924;2023-01-28T12:48:58;100487.31;;;4.02;66.32
30875;BME280;17581;43.222;27.924;2023-01-28T12:56:48;100498.38;;;4.10;66.34
30875;BME280;17581;43.222;27.924;2023-01-28T12:59:37;100494.88;;;3.94;66.40
30875;BME280;17581;43.222;27.924;2023-01-28T13:09:58;100517.69;;;4.14;67.19
30875;BME280;17581;43.222;27.924;2023-01-28T13:12:29;100518.03;;;4.23;66.07
30875;BME280;17581;43.222;27.924;2023-01-28T13:14:57;100530.22;;;4.27;65.52
30875;BME280;17581;43.222;27.924;2023-01-28T13:17:29;100535.56;;;4.27;65.45
30875;BME280;17581;43.222;27.924;2023-01-28T13:19:56;100526.38;;;4.17;65.38
30875;BME280;17581;43.222;27.924;2023-01-28T13:22:27;100530.75;;;4.18;66.02
30875;BME280;17581;43.222;27.924;2023-01-28T13:24:53;100539.31;;;4.23;65.22
30875;BME280;17581;43.222;27.924;2023-01-28T13:27:27;100531.44;;;4.06;65.38
30875;BME280;17581;43.222;27.924;2023-01-28T13:30:18;100549.09;;;4.07;65.91
30875;BME280;17581;43.222;27.924;2023-01-28T13:32:54;100547.06;;;3.97;65.48
30875;BME280;17581;43.222;27.924;2023-01-28T13:35:29;100542.06;;;3.91;66.02
30875;BME280;17581;43.222;27.924;2023-01-28T13:37:56;100557.00;;;3.93;66.13
30875;BME280;17581;43.222;27.924;2023-01-28T13:40:26;100561.47;;;3.93;66.08
30875;BME280;17581;43.222;27.924;2023-01-28T13:42:59;100547.03;;;3.81;65.90
30875;BME280;17581;43.222;27.924;2023-01-28T13:45:26;100567.66;;;3.93;65.63
30875;BME280;17581;43.222;27.924;2023-01-28T13:50:41;100578.47;;;3.90;65.59
30875;BME280;17581;43.222;27.924;2023-01-28T13:55:56;100581.78;;;3.78;66.34
30875;BME280;17581;43.222;27.924;2023-01-28T14:04:07;100572.94;;;3.77;66.50
30875;BME280;17581;43.222;27.924;2023-01-28T14:09:35;100583.53;;;3.62;66.75
30875;BME280;17581;43.222;27.924;2023-01-28T14:17:53;100576.38;;;3.64;66.92
30875;BME280;17581;43.222;27.924;2023-01-28T14:20:26;100569.66;;;3.57;66.65
30875;BME280;17581;43.222;27.924;2023-01-28T14:23:00;100578.06;;;3.65;66.61
30875;BME280;17581;43.222;27.924;2023-01-28T14:25:48;100574.31;;;3.69;66.35
30875;BME280;17581;43.222;27.924;2023-01-28T14:30:55;100596.13;;;3.75;66.87
30875;BME280;17581;43.222;27.924;2023-01-28T14:33:24;100595.53;;;3.86;66.02
30875;BME280;17581;43.222;27.924;2023-01-28T14:35:50;100603.16;;;3.92;66.01
30875;BME280;17581;43.222;27.924;2023-01-28T14:38:18;100604.72;;;3.96;65.97
30875;BME280;17581;43.222;27.924;2023-01-28T14:40:48;100615.63;;;4.07;65.89
30875;BME280;17581;43.222;27.924;2023-01-28T14:43:20;100609.22;;;4.11;65.58
30875;BME280;17581;43.222;27.924;2023-01-28T14:56:17;100626.19;;;3.93;65.81
30875;BME280;17581;43.222;27.924;2023-01-28T14:58:58;100626.50;;;3.87;66.38
30875;BME280;17581;43.222;27.924;2023-01-28T15:01:28;100630.44;;;3.80;66.48
30875;BME280;17581;43.222;27.924;2023-01-28T15:03:54;100639.38;;;3.79;66.04